Time;durP1;ratioP1;P1;durP2;ratioP2;P2;SDS_P1;SDS_P2;PMS_P1;PMS_P2;Temp;Humidity;BMP_temperature;BMP_pressure;BME280_temperature;BME280_humidity;BME280_pressure;Samples;Min_cycle;Max_cycle;Signal;HPM_P1;HPM_P2
2022/07/24 00:01:07;;;;;;;2.92;1.80;;;;;;;11.98;50.92;101978.69;4996622;28;20057;-68
2022/07/24 00:03:32;;;;;;;4.25;1.88;;;;;;;11.97;51.21;101969.09;4984879;28;20069;-70
2022/07/24 00:06:00;;;;;;;2.13;1.77;;;;;;;11.94;51.03;101972.66;4995899;28;20034;-70
2022/07/24 00:08:25;;;;;;;2.30;1.60;;;;;;;11.94;51.64;101958.72;4995895;28;20108;-70
2022/07/24 00:10:51;;;;;;;2.38;1.40;;;;;;;11.99;51.42;101967.28;4996528;28;20033;-70
2022/07/24 00:13:16;;;;;;;3.28;1.27;;;;;;;12.10;50.71;101969.63;4994675;28;20091;-70
2022/07/24 00:15:42;;;;;;;5.80;1.67;;;;;;;12.11;50.88;101966.94;4994915;28;20107;-70
2022/07/24 00:18:07;;;;;;;4.75;1.88;;;;;;;11.97;51.13;101961.22;5010881;28;20128;-71
2022/07/24 00:20:33;;;;;;;2.53;1.60;;;;;;;11.83;51.36;101967.72;4997382;28;20038;-71
2022/07/24 00:22:58;;;;;;;5.35;1.80;;;;;;;11.95;51.19;101965.66;4993341;28;20125;-70
2022/07/24 00:25:24;;;;;;;4.50;1.48;;;;;;;12.01;51.31;101957.63;4999105;28;20489;-71
2022/07/24 00:27:49;;;;;;;2.38;1.42;;;;;;;12.02;51.34;101968.06;4996122;28;20042;-70
2022/07/24 00:30:15;;;;;;;2.75;1.17;;;;;;;12.03;51.13;101955.81;5014023;28;20041;-70
2022/07/24 00:32:40;;;;;;;3.13;1.33;;;;;;;12.04;51.03;101960.16;4996826;28;20034;-70
2022/07/24 00:35:06;;;;;;;2.30;1.60;;;;;;;11.97;51.18;101961.22;4994135;28;20029;-70
2022/07/24 00:37:31;;;;;;;2.10;1.50;;;;;;;11.85;51.53;101958.06;4995523;28;20086;-71
2022/07/24 00:39:57;;;;;;;2.08;1.42;;;;;;;11.95;51.46;101955.19;4993242;28;20045;-70
2022/07/24 00:42:22;;;;;;;2.10;1.08;;;;;;;11.87;51.59;101964.13;4994566;28;20053;-70
2022/07/24 00:44:47;;;;;;;3.63;1.20;;;;;;;11.85;51.33;101954.59;4991304;28;20049;-70
2022/07/24 00:47:13;;;;;;;3.25;1.30;;;;;;;11.86;51.58;101951.06;4981558;28;20045;-70
2022/07/24 00:49:38;;;;;;;3.13;1.48;;;;;;;11.91;51.59;101954.44;4994817;28;20030;-69
2022/07/24 00:52:04;;;;;;;1.42;1.00;;;;;;;11.87;51.65;101953.66;4993779;28;20037;-70
2022/07/24 00:54:29;;;;;;;3.25;1.90;;;;;;;11.76;51.66;101947.81;4994233;28;20068;-71
2022/07/24 00:56:55;;;;;;;2.72;1.40;;;;;;;11.83;51.67;101946.75;4993140;28;20124;-65
2022/07/24 00:59:21;;;;;;;3.67;1.85;;;;;;;11.73;51.60;101942.66;4996136;28;20042;-65
2022/07/24 01:01:48;;;;;;;5.28;2.55;;;;;;;11.76;51.64;101941.72;4994989;28;20061;-68
2022/07/24 01:04:13;;;;;;;4.35;1.67;;;;;;;11.78;51.70;101938.19;4992378;28;20033;-68
2022/07/24 01:06:46;;;;;;;1.85;1.00;;;;;;;11.74;51.89;101940.91;4993762;28;20109;-70
2022/07/24 01:09:11;;;;;;;2.72;1.20;;;;;;;11.76;51.92;101928.63;5012390;28;20668;-69
2022/07/24 01:11:40;;;;;;;2.88;1.17;;;;;;;11.74;51.94;101928.66;4998936;28;20045;-70
2022/07/24 01:14:06;;;;;;;1.63;1.00;;;;;;;11.83;51.39;101931.06;4992731;28;20032;-69
2022/07/24 01:16:32;;;;;;;3.03;1.50;;;;;;;11.80;51.45;101928.53;5011312;28;20061;-71
2022/07/24 01:18:58;;;;;;;3.25;1.67;;;;;;;11.86;51.29;101924.84;4993864;28;20046;-70
2022/07/24 01:21:25;;;;;;;3.90;1.58;;;;;;;11.76;51.32;101924.25;4996805;28;20702;-70
2022/07/24 01:23:51;;;;;;;1.95;1.05;;;;;;;11.81;51.53;101921.53;4991679;28;20037;-70
2022/07/24 01:26:16;;;;;;;2.78;1.42;;;;;;;11.77;51.86;101927.72;4997456;28;20034;-70
2022/07/24 01:28:42;;;;;;;3.42;1.92;;;;;;;11.76;51.59;101919.00;4993003;28;20574;-66
2022/07/24 01:31:07;;;;;;;1.88;1.45;;;;;;;11.78;51.82;101927.72;5011753;28;20117;-68
2022/07/24 01:33:32;;;;;;;2.25;1.73;;;;;;;11.74;51.93;101920.81;5009773;28;20037;-68
2022/07/24 01:35:58;;;;;;;4.07;1.60;;;;;;;11.82;51.65;101920.59;5006785;28;20451;-67
2022/07/24 01:38:23;;;;;;;2.83;1.65;;;;;;;11.83;51.53;101920.56;4997485;28;20052;-67
2022/07/24 01:40:49;;;;;;;4.15;1.77;;;;;;;11.84;51.46;101917.06;4997556;28;20065;-67
2022/07/24 01:43:15;;;;;;;3.03;1.58;;;;;;;11.83;51.73;101915.34;4992573;28;20064;-68
2022/07/24 01:45:40;;;;;;;2.88;1.75;;;;;;;11.84;51.70;101919.69;4997861;28;20487;-67
2022/07/24 01:48:05;;;;;;;3.38;2.05;;;;;;;11.78;51.71;101912.00;4990164;28;20045;-68
2022/07/24 01:50:32;;;;;;;4.68;1.90;;;;;;;11.75;52.01;101905.94;4993888;28;20394;-67
2022/07/24 01:52:57;;;;;;;2.08;1.55;;;;;;;11.72;51.99;101912.13;4988926;28;20565;-67
2022/07/24 01:55:23;;;;;;;2.70;1.65;;;;;;;11.66;52.21;101902.69;5004618;28;20034;-67
2022/07/24 01:57:49;;;;;;;3.90;2.55;;;;;;;11.66;52.07;101912.28;4991152;28;20128;-67
2022/07/24 02:00:15;;;;;;;3.25;1.60;;;;;;;11.54;52.32;101915.28;4996687;28;20142;-68
2022/07/24 02:02:43;;;;;;;4.85;1.92;;;;;;;11.70;52.09;101913.09;4968510;28;20057;-67
2022/07/24 02:05:12;;;;;;;3.78;2.20;;;;;;;11.64;52.26;101914.97;5006970;28;20033;-68
2022/07/24 02:07:38;;;;;;;4.07;1.52;;;;;;;11.66;52.33;101914.91;4967535;28;20535;-68
2022/07/24 02:10:04;;;;;;;2.88;2.17;;;;;;;11.64;52.02;101908.84;4999609;28;20065;-67
2022/07/24 02:12:30;;;;;;;4.80;1.88;;;;;;;11.63;52.67;101909.78;4990879;28;20495;-68
2022/07/24 02:14:55;;;;;;;3.13;2.33;;;;;;;11.63;52.28;101907.16;4987863;28;20054;-68
2022/07/24 02:17:21;;;;;;;3.05;2.42;;;;;;;11.60;52.21;101902.00;4994649;28;20431;-68
2022/07/24 02:19:46;;;;;;;4.18;1.60;;;;;;;11.64;52.23;101916.72;4989133;28;20383;-67
2022/07/24 02:22:12;;;;;;;3.72;1.33;;;;;;;11.63;52.42;101913.25;4992660;28;20051;-68
2022/07/24 02:24:37;;;;;;;3.88;2.35;;;;;;;11.57;52.52;101907.31;4992316;28;20065;-67
2022/07/24 02:27:03;;;;;;;4.85;2.15;;;;;;;11.63;52.17;101909.78;4993869;28;20053;-68
2022/07/24 02:29:28;;;;;;;3.65;2.33;;;;;;;11.66;52.32;101907.94;4992794;28;20073;-67
2022/07/24 02:31:54;;;;;;;3.55;2.08;;;;;;;11.69;52.16;101907.00;4988981;28;20054;-68
2022/07/24 02:34:19;;;;;;;3.63;1.95;;;;;;;11.67;52.23;101904.41;5006674;28;20022;-68
2022/07/24 02:36:44;;;;;;;3.40;2.35;;;;;;;11.58;52.47;101904.66;4989611;28;20470;-67
2022/07/24 02:39:10;;;;;;;5.68;2.03;;;;;;;11.60;52.73;101894.16;4992371;28;20061;-67
2022/07/24 02:41:35;;;;;;;2.53;1.88;;;;;;;11.57;52.79;101892.47;4993456;28;20407;-67
2022/07/24 02:44:01;;;;;;;5.80;2.53;;;;;;;11.57;52.63;101894.22;4989410;28;20038;-68
2022/07/24 02:46:26;;;;;;;5.57;1.90;;;;;;;11.62;52.92;101889.72;4994641;28;20044;-68
2022/07/24 02:48:52;;;;;;;5.10;2.38;;;;;;;11.61;52.54;101890.63;4991111;28;20042;-68
2022/07/24 02:51:17;;;;;;;4.03;1.92;;;;;;;11.60;52.77;101887.16;4996000;28;20787;-67
2022/07/24 02:53:43;;;;;;;2.83;2.30;;;;;;;11.60;52.90;101892.41;4992815;28;20893;-69
2022/07/24 02:56:08;;;;;;;3.05;1.90;;;;;;;11.56;53.06;101885.53;4975249;28;20800;-70
2022/07/24 02:58:34;;;;;;;4.28;2.60;;;;;;;11.54;52.96;101886.47;4994887;28;20492;-69
2022/07/24 03:01:00;;;;;;;3.35;2.47;;;;;;;11.49;53.27;101893.59;4990781;28;20038;-69
2022/07/24 03:03:25;;;;;;;6.22;2.47;;;;;;;11.57;52.97;101886.38;4990278;28;20030;-67
2022/07/24 03:05:51;;;;;;;5.43;2.63;;;;;;;11.58;53.14;101880.25;4991581;28;20538;-67
2022/07/24 03:08:16;;;;;;;7.45;2.53;;;;;;;11.60;52.94;101879.31;4990961;28;20045;-67
2022/07/24 03:10:41;;;;;;;4.75;2.65;;;;;;;11.41;53.29;101885.94;4993196;28;20044;-67
2022/07/24 03:13:08;;;;;;;4.68;2.10;;;;;;;11.61;52.94;101882.78;4989182;28;20409;-67
2022/07/24 03:15:34;;;;;;;3.25;2.28;;;;;;;11.52;53.06;101883.88;4992970;28;20030;-67
2022/07/24 03:17:59;;;;;;;4.22;2.33;;;;;;;11.49;53.12;101877.91;4991717;28;20076;-67
2022/07/24 03:20:27;;;;;;;2.20;1.67;;;;;;;11.52;53.28;101888.28;4990967;28;20148;-67
2022/07/24 03:22:52;;;;;;;3.60;2.30;;;;;;;11.45;53.50;101877.97;4990871;28;20069;-67
2022/07/24 03:25:18;;;;;;;4.50;1.98;;;;;;;11.53;53.59;101877.75;4990866;28;20557;-67
2022/07/24 03:27:46;;;;;;;2.65;1.90;;;;;;;11.54;53.57;101878.63;4989987;28;20092;-67
2022/07/24 03:30:12;;;;;;;8.05;1.75;;;;;;;11.53;53.47;101875.16;4991258;28;20033;-67
2022/07/24 03:32:38;;;;;;;3.33;2.05;;;;;;;11.50;53.29;101874.38;4991734;28;20104;-67
2022/07/24 03:35:04;;;;;;;5.43;1.73;;;;;;;11.54;53.37;101873.38;4991232;28;20069;-68
2022/07/24 03:37:30;;;;;;;4.55;2.33;;;;;;;11.50;53.46;101869.97;4995035;28;20144;-69
2022/07/24 03:39:56;;;;;;;2.78;2.10;;;;;;;11.52;53.47;101876.03;4991689;28;20724;-68
2022/07/24 03:42:21;;;;;;;3.15;2.13;;;;;;;11.58;53.38;101867.16;4990638;28;20042;-68
2022/07/24 03:44:47;;;;;;;4.20;2.20;;;;;;;11.67;53.40;101869.50;4994611;28;20152;-67
2022/07/24 03:47:13;;;;;;;4.70;2.13;;;;;;;11.68;53.15;101874.69;4991481;28;20034;-66
2022/07/24 03:49:38;;;;;;;5.55;2.10;;;;;;;11.64;53.56;101867.84;4995496;28;20069;-67
2022/07/24 03:52:04;;;;;;;4.20;1.98;;;;;;;11.72;53.51;101870.22;4996059;28;20045;-73
2022/07/24 03:54:32;;;;;;;3.20;1.90;;;;;;;11.78;53.37;101872.72;4993725;28;20034;-73
2022/07/24 03:56:58;;;;;;;1.85;1.42;;;;;;;11.87;52.99;101874.19;4989504;28;20770;-68
2022/07/24 03:59:23;;;;;;;3.17;1.90;;;;;;;12.01;52.76;101869.41;4993260;28;20117;-70
2022/07/24 04:01:48;;;;;;;2.05;1.60;;;;;;;12.02;52.85;101867.63;4991263;28;20037;-70
2022/07/24 04:04:14;;;;;;;3.90;2.67;;;;;;;12.11;52.71;101863.88;4980088;28;20096;-70
2022/07/24 04:06:42;;;;;;;4.70;2.35;;;;;;;12.12;52.51;101861.22;4989428;28;20053;-70
2022/07/24 04:09:08;;;;;;;3.72;1.90;;;;;;;12.24;52.60;101858.19;5008036;28;20033;-69
2022/07/24 04:11:34;;;;;;;4.07;2.20;;;;;;;12.33;51.75;101857.03;4992158;28;20455;-70
2022/07/24 04:14:00;;;;;;;4.80;1.65;;;;;;;12.45;51.83;101853.19;4992829;28;20049;-70
2022/07/24 04:16:25;;;;;;;3.03;1.65;;;;;;;12.55;52.05;101851.13;4989874;28;20060;-70
2022/07/24 04:18:51;;;;;;;3.17;1.77;;;;;;;12.62;51.82;101845.59;4992414;28;20042;-70
2022/07/24 04:21:17;;;;;;;2.10;1.85;;;;;;;12.62;51.62;101832.50;4994996;28;20033;-70
2022/07/24 04:23:42;;;;;;;5.75;2.15;;;;;;;12.70;51.57;101841.00;4988391;28;20118;-65
2022/07/24 04:26:07;;;;;;;4.40;2.00;;;;;;;12.78;51.31;101834.63;4993804;28;20580;-65
2022/07/24 04:28:33;;;;;;;2.78;1.95;;;;;;;12.95;50.91;101832.31;4996541;28;20128;-65
2022/07/24 04:30:59;;;;;;;6.57;1.85;;;;;;;12.98;50.74;101832.22;4994463;28;20065;-65
2022/07/24 04:33:24;;;;;;;2.40;1.38;;;;;;;13.09;50.41;101834.44;4994336;28;20065;-65
2022/07/24 04:35:50;;;;;;;2.83;1.83;;;;;;;13.22;50.31;101826.97;5005265;28;20086;-70
2022/07/24 04:38:15;;;;;;;6.93;2.28;;;;;;;13.31;50.20;101822.25;5012503;28;20529;-71
2022/07/24 04:40:43;;;;;;;2.55;2.15;;;;;;;13.41;50.33;101822.78;4995111;28;20025;-69
2022/07/24 04:43:08;;;;;;;3.35;1.80;;;;;;;13.60;49.62;101828.22;5010873;28;20037;-68
2022/07/24 04:45:34;;;;;;;3.22;1.88;;;;;;;13.63;49.18;101822.88;5015305;28;20051;-69
2022/07/24 04:47:59;;;;;;;5.97;2.33;;;;;;;13.64;49.27;101819.31;4998076;28;20149;-69
2022/07/24 04:50:24;;;;;;;2.78;1.67;;;;;;;13.67;49.45;101818.34;4997803;28;20041;-70
2022/07/24 04:52:53;;;;;;;4.75;1.98;;;;;;;13.72;49.33;101826.94;4993284;28;20771;-70
2022/07/24 04:55:19;;;;;;;2.05;1.85;;;;;;;13.70;49.45;101826.13;5000784;28;20030;-70
2022/07/24 04:57:44;;;;;;;5.88;2.22;;;;;;;13.78;49.17;101825.81;4996886;28;20407;-70
2022/07/24 05:00:12;;;;;;;4.07;1.75;;;;;;;13.81;49.27;101825.69;4979299;28;20041;-70
2022/07/24 05:02:38;;;;;;;4.50;1.80;;;;;;;13.72;49.40;101821.66;4997948;28;20050;-70
2022/07/24 05:05:06;;;;;;;2.65;1.98;;;;;;;13.88;49.63;101822.78;4997285;28;20080;-70
2022/07/24 05:07:31;;;;;;;4.35;2.10;;;;;;;14.08;48.90;101818.53;4999329;28;20052;-70
2022/07/24 05:09:57;;;;;;;3.92;2.25;;;;;;;14.49;48.41;101823.91;5000786;28;20041;-70
2022/07/24 05:12:23;;;;;;;3.60;1.67;;;;;;;15.32;46.76;101825.59;4994056;28;20041;-71
2022/07/24 05:14:49;;;;;;;1.83;1.50;;;;;;;16.24;44.31;101826.56;4992427;28;20042;-70
2022/07/24 05:17:14;;;;;;;2.30;1.48;;;;;;;16.82;42.76;101834.25;4995935;28;20164;-72
2022/07/24 05:19:40;;;;;;;2.97;2.05;;;;;;;16.26;43.18;101819.44;4994864;28;20040;-69
2022/07/24 05:22:06;;;;;;;6.13;1.95;;;;;;;15.75;44.87;101820.97;4995708;28;20045;-70
2022/07/24 05:24:31;;;;;;;3.42;1.35;;;;;;;15.52;45.09;101825.53;4995924;28;20021;-69
2022/07/24 05:26:56;;;;;;;1.85;1.20;;;;;;;15.29;46.16;101825.75;4994652;28;20041;-69
2022/07/24 05:29:22;;;;;;;4.40;1.17;;;;;;;15.38;45.77;101814.78;4997035;28;20100;-68
2022/07/24 05:31:47;;;;;;;2.17;1.42;;;;;;;15.55;46.16;101827.19;4995984;28;20029;-68
2022/07/24 05:34:13;;;;;;;2.92;1.83;;;;;;;15.72;44.69;101816.72;4993573;28;20495;-68
2022/07/24 05:36:39;;;;;;;1.73;1.20;;;;;;;15.97;44.81;101816.44;5009975;28;20091;-68
2022/07/24 05:39:05;;;;;;;4.60;1.70;;;;;;;16.11;44.59;101815.78;4996490;28;20017;-68
2022/07/24 05:41:30;;;;;;;2.10;1.52;;;;;;;16.86;43.38;101818.25;4995051;28;20034;-70
2022/07/24 05:43:56;;;;;;;1.77;1.35;;;;;;;18.73;40.47;101820.25;4991744;28;20049;-68
2022/07/24 05:46:21;;;;;;;1.83;1.20;;;;;;;20.29;35.96;101804.28;4995895;28;20045;-69
2022/07/24 05:48:46;;;;;;;2.92;1.95;;;;;;;20.24;35.42;101807.25;4997748;28;20038;-70
2022/07/24 05:51:12;;;;;;;2.15;1.20;;;;;;;18.96;37.58;101810.94;4997594;28;20120;-70
2022/07/24 05:53:37;;;;;;;2.67;1.73;;;;;;;17.77;40.67;101809.00;4998053;28;20034;-70
2022/07/24 05:56:03;;;;;;;2.13;1.55;;;;;;;17.58;41.36;101811.78;5007131;28;20521;-71
2022/07/24 05:58:29;;;;;;;2.53;1.52;;;;;;;18.46;39.78;101805.91;5013196;28;20042;-74
2022/07/24 06:00:54;;;;;;;3.15;1.73;;;;;;;19.84;37.37;101804.53;4999921;28;20096;-72
2022/07/24 06:03:20;;;;;;;2.20;0.80;;;;;;;20.91;36.21;101799.19;4997063;28;20144;-70
2022/07/24 06:05:46;;;;;;;1.52;0.93;;;;;;;21.83;33.85;101786.44;4996107;28;20057;-71
2022/07/24 06:08:11;;;;;;;3.55;1.25;;;;;;;22.58;32.06;101783.47;4993882;28;20079;-70
2022/07/24 06:10:37;;;;;;;4.05;1.50;;;;;;;22.41;32.69;101785.72;5000360;28;20142;-70
2022/07/24 06:13:02;;;;;;;2.55;1.30;;;;;;;22.41;31.83;101775.91;4991941;28;20042;-71
2022/07/24 06:15:29;;;;;;;2.00;0.98;;;;;;;22.90;32.10;101772.13;5000228;28;20033;-70
2022/07/24 06:17:54;;;;;;;1.48;1.25;;;;;;;23.59;30.15;101761.28;4995563;28;20037;-70
2022/07/24 06:20:20;;;;;;;1.95;1.00;;;;;;;24.26;30.27;101761.13;5014581;28;20034;-70
2022/07/24 06:22:46;;;;;;;2.85;1.08;;;;;;;23.47;30.14;101748.09;4991656;28;20074;-68
2022/07/24 06:25:11;;;;;;;5.35;1.15;;;;;;;24.51;28.82;101758.09;4993893;28;20057;-69
2022/07/24 06:27:46;;;;;;;2.55;1.08;;;;;;;24.29;28.54;101752.88;4996811;28;20084;-68
2022/07/24 06:30:17;;;;;;;2.47;0.60;;;;;;;24.01;29.91;101756.06;4994578;28;20137;-71
2022/07/24 06:32:43;;;;;;;1.93;0.93;;;;;;;23.09;31.65;101754.66;5009815;28;20045;-70
2022/07/24 06:35:10;;;;;;;1.73;0.90;;;;;;;22.56;32.06;101752.56;4997804;28;21834;-69
2022/07/24 06:37:35;;;;;;;3.38;1.25;;;;;;;22.05;33.33;101751.09;4995596;28;20049;-69
2022/07/24 06:40:01;;;;;;;3.05;1.10;;;;;;;21.66;34.55;101749.59;5008356;28;20038;-68
2022/07/24 06:42:27;;;;;;;1.42;1.08;;;;;;;21.95;34.35;101755.41;4996755;28;20124;-70
2022/07/24 06:44:52;;;;;;;1.50;1.08;;;;;;;22.15;33.75;101751.25;4993733;28;20060;-70
2022/07/24 06:47:18;;;;;;;1.50;0.90;;;;;;;22.55;33.07;101746.38;4994714;28;20606;-69
2022/07/24 06:49:43;;;;;;;2.70;0.68;;;;;;;24.01;30.73;101747.19;4993646;28;20041;-71
2022/07/24 06:52:09;;;;;;;5.07;1.58;;;;;;;25.07;29.08;101742.63;4995076;28;20092;-69
2022/07/24 06:54:34;;;;;;;2.00;1.15;;;;;;;25.00;28.42;101724.44;4994510;28;20030;-70
2022/07/24 06:57:00;;;;;;;1.50;0.95;;;;;;;24.55;29.29;101746.19;4991980;28;22122;-71
2022/07/24 06:59:26;;;;;;;3.53;1.20;;;;;;;25.61;28.10;101736.00;5000010;28;20121;-70
2022/07/24 07:01:51;;;;;;;1.27;0.98;;;;;;;26.83;27.46;101736.25;4993591;28;20565;-70
2022/07/24 07:04:17;;;;;;;1.55;1.08;;;;;;;27.60;25.68;101739.44;4996656;28;20038;-72
2022/07/24 07:06:42;;;;;;;5.47;1.27;;;;;;;27.43;25.19;101750.03;4994447;28;20048;-69
2022/07/24 07:09:08;;;;;;;4.28;1.52;;;;;;;25.85;27.10;101746.28;5002219;28;20037;-70
2022/07/24 07:11:33;;;;;;;2.28;1.10;;;;;;;24.83;28.88;101746.44;5000690;28;20032;-71
2022/07/24 07:13:59;;;;;;;1.88;1.35;;;;;;;24.01;30.04;101737.38;4994983;28;20033;-69
2022/07/24 07:16:24;;;;;;;1.92;1.25;;;;;;;23.43;31.73;101747.47;4996792;28;20056;-70
2022/07/24 07:18:50;;;;;;;3.45;1.45;;;;;;;23.22;32.13;101747.38;4994356;28;20134;-70
2022/07/24 07:21:15;;;;;;;2.88;1.77;;;;;;;23.12;32.20;101755.28;4996615;28;20038;-70
2022/07/24 07:23:41;;;;;;;4.22;2.00;;;;;;;23.20;32.18;101755.50;4992758;28;20075;-71
2022/07/24 07:26:07;;;;;;;3.70;1.95;;;;;;;23.06;33.08;101754.94;4999102;28;20086;-70
2022/07/24 07:28:32;;;;;;;3.58;1.65;;;;;;;23.05;32.04;101742.56;5008784;28;20049;-72
2022/07/24 07:30:58;;;;;;;4.13;1.75;;;;;;;22.71;32.83;101746.06;4996503;28;20037;-70
2022/07/24 07:33:23;;;;;;;4.05;1.83;;;;;;;22.41;33.68;101738.63;4995409;28;20041;-69
2022/07/24 07:35:49;;;;;;;3.17;1.85;;;;;;;22.17;34.57;101736.88;4992085;28;20037;-69
2022/07/24 07:38:15;;;;;;;3.08;1.90;;;;;;;21.92;35.31;101737.00;4991057;28;20127;-69
2022/07/24 07:40:41;;;;;;;2.83;1.60;;;;;;;21.94;34.88;101730.59;4992295;28;20628;-70
2022/07/24 07:43:06;;;;;;;2.80;1.98;;;;;;;21.79;35.40;101723.75;4992651;28;20042;-70
2022/07/24 07:45:32;;;;;;;3.95;2.10;;;;;;;21.85;35.46;101720.66;4995860;28;20033;-71
2022/07/24 07:47:57;;;;;;;3.40;2.80;;;;;;;21.80;35.60;101728.09;4991634;28;20064;-70
2022/07/24 07:50:23;;;;;;;1.73;1.50;;;;;;;22.65;34.69;101727.00;4989179;28;20130;-70
2022/07/24 07:52:48;;;;;;;4.97;2.75;;;;;;;22.74;34.05;101728.97;4985893;28;20038;-71
2022/07/24 07:55:14;;;;;;;3.05;2.58;;;;;;;23.03;33.83;101732.03;4992101;28;20026;-70
2022/07/24 07:57:41;;;;;;;5.22;2.50;;;;;;;23.22;33.10;101726.06;4992703;28;20461;-70
2022/07/24 08:00:08;;;;;;;3.20;2.28;;;;;;;24.05;32.03;101719.25;4991850;28;20061;-68
2022/07/24 08:02:37;;;;;;;5.45;2.45;;;;;;;24.13;31.14;101729.31;4995151;28;20038;-71
2022/07/24 08:05:03;;;;;;;5.47;2.88;;;;;;;24.81;30.68;101721.66;4995569;28;20100;-68
2022/07/24 08:07:28;;;;;;;6.35;2.83;;;;;;;25.11;29.56;101715.47;4984595;28;20129;-69
2022/07/24 08:09:54;;;;;;;3.67;2.35;;;;;;;26.53;27.97;101723.91;4997341;28;20743;-69
2022/07/24 08:12:19;;;;;;;3.00;2.13;;;;;;;27.88;26.16;101716.91;4997481;28;20049;-70
2022/07/24 08:14:45;;;;;;;3.45;2.60;;;;;;;29.88;23.90;101724.63;5000638;28;20041;-69
2022/07/24 08:17:11;;;;;;;3.67;2.38;;;;;;;29.26;24.16;101725.06;4996870;28;20038;-69
2022/07/24 08:19:37;;;;;;;4.63;2.85;;;;;;;28.98;24.49;101725.28;4997454;28;20038;-69
2022/07/24 08:22:04;;;;;;;10.93;3.38;;;;;;;29.44;23.82;101723.09;4997085;28;20112;-69
2022/07/24 08:24:32;;;;;;;3.45;3.13;;;;;;;29.69;22.95;101720.44;4995798;28;20035;-69
2022/07/24 08:26:58;;;;;;;3.67;2.67;;;;;;;31.63;21.79;101718.25;4992021;28;20582;-69
2022/07/24 08:29:25;;;;;;;2.35;2.13;;;;;;;32.34;20.09;101717.91;5000575;28;20041;-70
2022/07/24 08:31:51;;;;;;;3.17;2.53;;;;;;;32.57;20.20;101715.13;4995840;28;20064;-70
2022/07/24 08:34:16;;;;;;;3.13;1.85;;;;;;;32.36;21.05;101713.97;4995405;28;20052;-69
2022/07/24 08:36:45;;;;;;;3.17;2.72;;;;;;;32.19;20.09;101713.34;4994384;28;20450;-69
2022/07/24 08:39:15;;;;;;;4.70;3.05;;;;;;;30.35;22.06;101708.56;4997203;28;20222;-69
2022/07/24 08:41:41;;;;;;;4.40;3.47;;;;;;;31.34;20.93;101702.75;4999012;28;20111;-69
2022/07/24 08:44:08;;;;;;;7.78;3.40;;;;;;;31.58;20.66;101701.72;4996978;28;20038;-71
2022/07/24 08:46:42;;;;;;;5.63;3.38;;;;;;;31.82;20.78;101706.91;5014944;28;20113;-70
2022/07/24 08:49:10;;;;;;;3.28;2.97;;;;;;;31.75;20.67;101700.56;4997733;28;20030;-70
2022/07/24 08:51:38;;;;;;;3.55;3.25;;;;;;;30.56;21.91;101704.50;4997957;28;20538;-70
2022/07/24 08:54:04;;;;;;;3.10;2.78;;;;;;;30.93;21.41;101705.66;5013986;28;20022;-72
2022/07/24 08:56:29;;;;;;;3.45;3.13;;;;;;;31.06;22.07;101705.94;4997186;28;20033;-71
2022/07/24 08:58:55;;;;;;;5.68;2.85;;;;;;;32.62;20.84;101699.16;4991475;28;20072;-70
2022/07/24 09:01:21;;;;;;;6.25;4.75;;;;;;;30.61;22.38;101706.66;4997119;28;20502;-70
2022/07/24 09:03:47;;;;;;;6.43;4.38;;;;;;;29.94;23.16;101705.09;4996333;28;20038;-72
2022/07/24 09:06:14;;;;;;;7.20;6.00;;;;;;;29.13;24.51;101702.16;5001121;28;20060;-71
2022/07/24 09:08:55;;;;;;;4.47;3.97;;;;;;;30.94;22.53;101694.69;4999733;28;20108;-71
2022/07/24 09:11:21;;;;;;;9.55;5.80;;;;;;;29.75;23.64;101700.88;5003517;28;20510;-71
2022/07/24 09:16:36;;;;;;;10.20;6.25;;;;;;;30.76;22.80;101694.97;5008955;28;20049;-71
2022/07/24 09:19:04;;;;;;;7.28;5.63;;;;;;;31.17;22.17;101691.19;4996771;28;20633;-70
2022/07/24 09:21:35;;;;;;;7.90;5.85;;;;;;;30.59;23.31;101704.13;4996505;28;20030;-71
2022/07/24 09:24:15;;;;;;;11.02;7.18;;;;;;;30.83;22.50;101705.88;4993315;28;20056;-70
2022/07/24 09:26:47;;;;;;;6.90;5.10;;;;;;;30.80;22.96;101696.28;4992559;28;20030;-69
2022/07/24 09:29:14;;;;;;;9.43;6.22;;;;;;;29.21;24.39;101687.84;4996014;28;20032;-70
2022/07/24 09:32:16;;;;;;;10.80;6.50;;;;;;;28.01;26.24;101696.81;4996145;28;20021;-69
2022/07/24 09:34:41;;;;;;;7.18;5.90;;;;;;;27.38;26.90;101695.94;4972215;28;20112;-70
2022/07/24 09:37:08;;;;;;;9.68;5.40;;;;;;;26.00;28.59;101701.13;4993985;28;20503;-69
2022/07/24 09:39:36;;;;;;;8.40;5.60;;;;;;;26.27;28.76;101700.44;4994059;28;20415;-70
2022/07/24 09:42:05;;;;;;;5.07;4.47;;;;;;;27.22;27.10;101702.00;4991286;28;20046;-70
2022/07/24 09:44:31;;;;;;;8.52;5.30;;;;;;;26.73;27.28;101698.72;4996197;28;20609;-71
2022/07/24 09:47:02;;;;;;;6.85;5.40;;;;;;;26.15;28.37;101694.38;4990939;28;20033;-71
2022/07/24 09:49:29;;;;;;;;;;;;;;;26.87;26.86;101692.88;5010560;28;20075;-69
2022/07/24 09:52:12;;;;;;;8.05;4.68;;;;;;;28.02;25.70;101685.94;4999008;28;19913;-70
2022/07/24 09:54:49;;;;;;;6.53;3.55;;;;;;;29.13;24.86;101680.63;4991594;28;20034;-70
2022/07/24 09:57:17;;;;;;;8.15;5.03;;;;;;;27.67;26.16;101692.22;4994545;28;20695;-70
2022/07/24 09:59:46;;;;;;;6.53;4.68;;;;;;;26.80;26.95;101693.59;4991083;28;20065;-69
2022/07/24 10:02:13;;;;;;;5.60;4.22;;;;;;;25.62;28.27;101692.16;4990795;28;20030;-69
2022/07/24 10:04:41;;;;;;;5.40;4.30;;;;;;;24.70;29.80;101700.38;4991998;28;20030;-69
2022/07/24 10:07:10;;;;;;;6.88;6.07;;;;;;;24.84;30.69;101697.34;4989653;28;21141;-69
2022/07/24 10:09:35;;;;;;;6.40;4.43;;;;;;;25.18;30.78;101689.00;4992073;28;20071;-68
2022/07/24 10:12:03;;;;;;;7.60;4.60;;;;;;;25.86;31.55;101697.91;4992839;28;20046;-69
2022/07/24 10:14:29;;;;;;;6.10;4.63;;;;;;;25.81;31.15;101697.50;4992331;28;20033;-69
2022/07/24 10:17:05;;;;;;;8.40;5.10;;;;;;;26.15;29.38;101694.38;4989451;28;20046;-69
2022/07/24 10:19:39;;;;;;;5.45;4.57;;;;;;;27.75;27.19;101686.09;4996452;28;20040;-69
2022/07/24 10:22:10;;;;;;;3.70;3.40;;;;;;;28.22;25.48;101685.75;4988574;28;20043;-69
2022/07/24 10:25:07;;;;;;;1.75;1.23;;;;;;;26.59;26.22;101683.13;4993239;28;20080;-69
2022/07/24 10:27:37;;;;;;;2.13;1.73;;;;;;;26.74;26.36;101686.16;4990585;28;20046;-68
2022/07/24 10:30:07;;;;;;;3.10;2.75;;;;;;;28.17;25.70;101672.81;4988809;28;20049;-69
2022/07/24 10:32:34;;;;;;;3.92;2.10;;;;;;;27.08;26.03;101678.34;4991560;28;20855;-68
2022/07/24 10:35:21;;;;;;;2.90;1.90;;;;;;;26.81;26.35;101668.50;4988761;28;20213;-69
2022/07/24 10:38:09;;;;;;;3.78;1.95;;;;;;;26.70;26.66;101666.84;4990567;28;20314;-70
2022/07/24 10:40:49;;;;;;;2.90;2.22;;;;;;;26.62;25.59;101669.44;4996120;28;20037;-69
2022/07/24 10:43:19;;;;;;;2.67;2.10;;;;;;;26.20;27.08;101659.97;4990965;28;20041;-69
2022/07/24 10:45:48;;;;;;;5.93;2.20;;;;;;;26.97;26.98;101663.31;4996435;28;20037;-69
2022/07/24 10:48:20;;;;;;;6.38;2.33;;;;;;;27.00;26.21;101662.16;4992991;28;20042;-69
2022/07/24 10:50:58;;;;;;;5.35;3.20;;;;;;;27.37;25.60;101659.38;4994962;28;20127;-69
2022/07/24 10:53:51;;;;;;;3.67;2.42;;;;;;;27.60;26.42;101656.22;4992662;28;20046;-69
2022/07/24 10:56:19;;;;;;;4.93;1.95;;;;;;;27.68;24.59;101654.47;4996243;28;20072;-68
2022/07/24 10:58:58;;;;;;;5.43;2.42;;;;;;;27.01;26.94;101659.34;4993997;28;20121;-69
2022/07/24 11:01:27;;;;;;;2.53;1.90;;;;;;;28.20;26.10;101661.72;4994651;28;20533;-69
2022/07/24 11:03:53;;;;;;;3.80;2.75;;;;;;;28.27;26.06;101660.06;4994309;28;20137;-69
2022/07/24 11:06:21;;;;;;;4.18;2.65;;;;;;;29.19;24.44;101656.75;4996458;28;20040;-69
2022/07/24 11:08:50;;;;;;;4.57;2.55;;;;;;;28.54;25.28;101664.41;4992973;28;20061;-69
2022/07/24 11:11:21;;;;;;;5.60;2.47;;;;;;;28.67;25.69;101658.59;4993923;28;20050;-69
2022/07/24 11:13:49;;;;;;;3.45;2.00;;;;;;;29.08;25.36;101656.03;5006345;28;20748;-69
2022/07/24 11:16:15;;;;;;;3.00;2.25;;;;;;;28.11;25.78;101646.53;4993473;28;20252;-69
2022/07/24 11:18:41;;;;;;;5.70;3.00;;;;;;;26.79;27.16;101649.88;4997403;28;20096;-69
2022/07/24 11:21:08;;;;;;;4.07;2.72;;;;;;;27.53;27.21;101656.81;4995257;28;20112;-70
2022/07/24 11:23:33;;;;;;;2.10;1.90;;;;;;;26.90;26.36;101660.38;4993810;28;20038;-68
2022/07/24 11:26:40;;;;;;;1.90;1.70;;;;;;;27.39;26.56;101656.56;4992279;28;20040;-69